Observations for BREST GUIPAVAS, France (LFRB)

LFRB 170030Z AUTO 32003KT CAVOK 11/10 Q1018 TEMPO 0800 FG VV/// 
LFRB 170000Z AUTO 31003KT CAVOK 11/10 Q1018 TEMPO 0800 FG VV/// 
LFRB 162330Z AUTO 31003KT CAVOK 12/10 Q1018 TEMPO 0800 FG VV/// 
LFRB 162300Z AUTO 32003KT CAVOK 11/09 Q1018 BECMG 3000 BR BKN006
LFRB 162230Z AUTO 35002KT CAVOK 13/10 Q1018 BECMG 3000 BR BKN006
LFRB 162200Z AUTO 32005KT CAVOK 14/11 Q1019 BECMG 3000 BR BKN006
LFRB 162130Z AUTO 34003KT CAVOK 14/10 Q1018 BECMG 3000 BR BKN006
LFRB 162100Z AUTO 36003KT CAVOK 16/11 Q1018 NOSIG   
LFRB 162030Z AUTO 35004KT CAVOK 16/10 Q1018 NOSIG   
LFRB 162000Z AUTO 01004KT CAVOK 18/11 Q1018 NOSIG   
LFRB 161930Z AUTO 02003KT CAVOK 19/11 Q1018 NOSIG   
LFRB 161900Z AUTO 02004KT 360V060 CAVOK 19/11 Q1018 NOSIG   
LFRB 161830Z AUTO 02005KT CAVOK 20/11 Q1018 NOSIG   
LFRB 161800Z AUTO 01006KT 340V050 CAVOK 21/12 Q1018 NOSIG   
LFRB 161730Z AUTO 34005KT 300V010 CAVOK 21/12 Q1018 NOSIG   
LFRB 161700Z AUTO 32006KT 290V020 CAVOK 22/12 Q1018 NOSIG   
LFRB 161630Z AUTO 34008KT 300V030 CAVOK 23/13 Q1018 NOSIG   
LFRB 161600Z AUTO 31008KT 260V350 CAVOK 23/12 Q1018 NOSIG   
LFRB 161530Z AUTO 31008KT 280V340 9999 FEW043 23/13 Q1018 NOSIG 
LFRB 161500Z AUTO 31006KT 280V360 9999 BKN042 BKN048 OVC060 23/12 Q1019 NOSIG   
LFRB 161430Z AUTO 31006KT 240V360 9999 BKN044 BKN060 23/13 Q1019 NOSIG  
LFRB 161400Z AUTO VRB03KT 9999 SCT044 BKN058 23/13 Q1019 NOSIG  
LFRB 161330Z AUTO 33007KT 260V360 9999 BKN045 BKN054 BKN064 23/13 Q1019 NOSIG   
LFRB 161300Z AUTO 27008KT 240V310 9999 BKN046 BKN052 BKN062 24/13 Q1019 NOSIG   
LFRB 161230Z AUTO 21007KT 160V280 9999 BKN047 BKN056 24/12 Q1019 NOSIG  
LFRB 161200Z AUTO VRB05KT 9999 FEW046 23/12 Q1019 NOSIG 
LFRB 161130Z AUTO VRB03KT CAVOK 24/12 Q1019 NOSIG   
LFRB 161100Z AUTO VRB05KT CAVOK 23/12 Q1019 NOSIG   
LFRB 161030Z AUTO VRB02KT CAVOK 23/12 Q1019 NOSIG   
LFRB 161000Z AUTO 03004KT 350V080 CAVOK 22/12 Q1019 NOSIG   
LFRB 160930Z AUTO 04003KT 350V090 9999 FEW012 21/11 Q1019 NOSIG 
LFRB 160900Z AUTO VRB02KT CAVOK 21/11 Q1019 NOSIG   
LFRB 160830Z AUTO VRB02KT CAVOK 20/11 Q1019 NOSIG   
LFRB 160800Z AUTO VRB02KT CAVOK 20/12 Q1020 NOSIG   
LFRB 160730Z AUTO VRB02KT CAVOK 19/12 Q1019 NOSIG   
LFRB 160700Z AUTO VRB03KT CAVOK 17/13 Q1019 NOSIG   
LFRB 160630Z AUTO 07003KT CAVOK 15/14 Q1019 NOSIG   
LFRB 160600Z AUTO 06002KT CAVOK 14/14 Q1019 NOSIG   
LFRB 160530Z AUTO 05003KT CAVOK 13/13 Q1019 NOSIG   
LFRB 160500Z AUTO 06004KT CAVOK 12/11 Q1019 NOSIG   
LFRB 160430Z AUTO 04004KT CAVOK 11/10 Q1019 NOSIG   
LFRB 160400Z AUTO 04003KT CAVOK 12/11 Q1019 NOSIG   
LFRB 160330Z AUTO 22003KT CAVOK 12/11 Q1019 NOSIG   
LFRB 160300Z AUTO 26002KT CAVOK 10/09 Q1019 NOSIG   
LFRB 160230Z AUTO 00000KT CAVOK 11/10 Q1019 NOSIG   
LFRB 160200Z AUTO 15001KT CAVOK 11/10 Q1019 NOSIG   
LFRB 160130Z AUTO 14002KT CAVOK 12/11 Q1019 NOSIG   
LFRB 160100Z AUTO 13002KT CAVOK 12/11 Q1020 NOSIG   
LFRB 160030Z AUTO 10003KT CAVOK 12/11 Q1020 NOSIG   
LFRB 160000Z AUTO 08003KT CAVOK 13/11 Q1020 NOSIG